Time;durP1;ratioP1;P1;durP2;ratioP2;P2;SDS_P1;SDS_P2;PMS_P1;PMS_P2;Temp;Humidity;BMP_temperature;BMP_pressure;BME280_temperature;BME280_humidity;BME280_pressure;Samples;Min_cycle;Max_cycle;Signal;HPM_P1;HPM_P2
2022/03/14 00:00:03;;;;;;;11.40;6.93;;;11.10;96.70;;;;;;4989217;28;20046;-82
2022/03/14 00:02:39;;;;;;;7.95;6.05;;;11.10;96.70;;;;;;4986676;28;20538;-83
2022/03/14 00:05:13;;;;;;;8.23;6.15;;;11.10;96.70;;;;;;5002650;28;20096;-82
2022/03/14 00:07:41;;;;;;;9.85;5.97;;;11.10;96.70;;;;;;4971684;28;20050;-81
2022/03/14 00:10:10;;;;;;;9.50;7.00;;;11.10;96.70;;;;;;4987071;28;20388;-82
2022/03/14 00:12:39;;;;;;;12.20;7.28;;;11.10;96.70;;;;;;4978852;28;20042;-82
2022/03/14 00:15:11;;;;;;;9.52;7.60;;;11.00;96.70;;;;;;5013726;28;20506;-83
2022/03/14 00:17:40;;;;;;;13.38;8.27;;;10.90;96.70;;;;;;5004842;28;20053;-82
2022/03/14 00:20:12;;;;;;;13.35;7.38;;;10.90;96.70;;;;;;4993127;28;20143;-82
2022/03/14 00:22:41;;;;;;;8.05;7.00;;;10.90;96.70;;;;;;4978354;28;20054;-82
2022/03/14 00:25:10;;;;;;;9.82;7.57;;;10.90;96.70;;;;;;4989247;28;20133;-83
2022/03/14 00:27:39;;;;;;;10.18;7.05;;;10.90;96.70;;;;;;4988559;28;20486;-82
2022/03/14 00:30:10;;;;;;;11.00;7.32;;;10.90;96.70;;;;;;4987051;28;20090;-83
2022/03/14 00:32:38;;;;;;;9.98;7.45;;;10.90;96.70;;;;;;4989545;28;20065;-82
2022/03/14 00:35:07;;;;;;;10.05;8.07;;;10.90;96.70;;;;;;4971044;28;20065;-82
2022/03/14 00:37:41;;;;;;;13.43;8.77;;;10.90;96.70;;;;;;5011559;28;20074;-82
2022/03/14 00:40:10;;;;;;;11.40;8.45;;;10.90;96.70;;;;;;5003100;28;20043;-82
2022/03/14 00:42:41;;;;;;;13.25;9.15;;;10.90;96.70;;;;;;5003133;28;20183;-82
2022/03/14 00:45:10;;;;;;;15.43;8.95;;;10.80;96.70;;;;;;4985988;28;20141;-81
2022/03/14 00:47:38;;;;;;;10.85;8.73;;;10.80;96.70;;;;;;4970584;28;20550;-82
2022/03/14 00:50:07;;;;;;;11.27;8.32;;;10.70;96.70;;;;;;4984627;28;20133;-83
2022/03/14 00:52:37;;;;;;;10.82;8.65;;;10.70;96.70;;;;;;4986187;28;20081;-81
2022/03/14 00:55:06;;;;;;;12.95;8.80;;;10.80;96.70;;;;;;5010774;28;20059;-82
2022/03/14 00:57:34;;;;;;;12.77;8.00;;;10.70;96.70;;;;;;4973585;28;20075;-81
2022/03/14 01:00:04;;;;;;;13.02;8.15;;;10.80;96.70;;;;;;5012414;28;20606;-82
2022/03/14 01:02:32;;;;;;;11.07;8.50;;;10.90;96.70;;;;;;4985748;28;20047;-82
2022/03/14 01:05:01;;;;;;;10.07;8.40;;;10.90;96.70;;;;;;4986185;28;20050;-83
2022/03/14 01:07:29;;;;;;;9.73;8.30;;;11.00;96.70;;;;;;4985420;28;20043;-82
2022/03/14 01:09:58;;;;;;;10.75;7.68;;;11.00;96.70;;;;;;4969841;28;20049;-82
2022/03/14 01:12:27;;;;;;;10.32;7.90;;;11.00;96.70;;;;;;4970604;28;20043;-83
2022/03/14 01:14:56;;;;;;;11.77;8.73;;;11.00;96.70;;;;;;4992630;28;20074;-82
2022/03/14 01:17:24;;;;;;;11.70;8.85;;;10.90;96.70;;;;;;4972394;28;20571;-82
2022/03/14 01:19:53;;;;;;;11.48;8.73;;;10.90;96.70;;;;;;4986573;28;20038;-82
2022/03/14 01:22:21;;;;;;;10.50;7.75;;;10.90;96.70;;;;;;5001631;28;20125;-82
2022/03/14 01:24:49;;;;;;;11.07;8.52;;;10.90;96.70;;;;;;4970991;28;20049;-82
2022/03/14 01:27:19;;;;;;;11.20;8.95;;;10.80;96.70;;;;;;4975513;28;20149;-82
2022/03/14 01:29:47;;;;;;;10.38;8.05;;;10.90;96.70;;;;;;5001953;28;20194;-82
2022/03/14 01:32:15;;;;;;;12.10;8.50;;;10.90;96.70;;;;;;5009523;28;20046;-83
2022/03/14 01:34:44;;;;;;;11.27;8.90;;;10.90;96.70;;;;;;4983931;28;20078;-82
2022/03/14 01:37:12;;;;;;;12.13;8.75;;;10.90;96.70;;;;;;5006863;28;20038;-83
2022/03/14 01:39:40;;;;;;;11.30;8.68;;;10.90;96.70;;;;;;4978077;28;20093;-82
2022/03/14 01:42:15;;;;;;;10.82;7.55;;;10.90;96.70;;;;;;4989204;28;20551;-82
2022/03/14 01:44:46;;;;;;;12.65;8.07;;;10.90;96.70;;;;;;4996871;28;20119;-82
2022/03/14 01:47:14;;;;;;;15.40;8.77;;;11.00;96.70;;;;;;4989499;28;20125;-82
2022/03/14 01:49:43;;;;;;;9.27;7.70;;;10.90;96.70;;;;;;4989569;28;20046;-82
2022/03/14 01:52:13;;;;;;;11.95;8.18;;;10.90;96.70;;;;;;5006110;28;20141;-83
2022/03/14 01:54:42;;;;;;;12.40;8.30;;;11.00;96.70;;;;;;4989987;28;20871;-82
2022/03/14 01:57:13;;;;;;;12.60;7.75;;;11.00;96.70;;;;;;5004552;28;20050;-82
2022/03/14 01:59:41;;;;;;;10.73;7.93;;;11.10;96.70;;;;;;5006168;28;20385;-82
2022/03/14 02:02:17;;;;;;;9.48;7.55;;;11.00;96.70;;;;;;5007129;28;20046;-80
2022/03/14 02:04:46;;;;;;;11.50;8.05;;;11.00;96.70;;;;;;4990019;28;20058;-83
2022/03/14 02:07:15;;;;;;;9.90;8.40;;;11.00;96.70;;;;;;4995222;28;20042;-81
2022/03/14 02:09:43;;;;;;;10.95;7.65;;;11.00;96.70;;;;;;4988145;28;20060;-81
2022/03/14 02:12:11;;;;;;;10.55;7.65;;;11.00;96.70;;;;;;5008876;28;20161;-82
2022/03/14 02:14:40;;;;;;;9.18;7.25;;;11.00;96.70;;;;;;4975991;28;20054;-82
2022/03/14 02:17:09;;;;;;;10.98;7.30;;;11.00;96.70;;;;;;4971687;28;20484;-82
2022/03/14 02:19:40;;;;;;;10.68;7.65;;;10.90;96.70;;;;;;5006084;28;20506;-83
2022/03/14 02:22:14;;;;;;;9.40;6.78;;;11.00;96.70;;;;;;5012790;28;20165;-83
2022/03/14 02:24:43;;;;;;;8.55;6.75;;;10.90;96.70;;;;;;4989166;28;20046;-80
2022/03/14 02:27:11;;;;;;;10.15;6.57;;;10.90;96.70;;;;;;5007495;28;20050;-83
2022/03/14 02:29:40;;;;;;;8.18;6.68;;;11.00;96.70;;;;;;4989830;28;20046;-82
2022/03/14 02:32:13;;;;;;;9.00;7.50;;;10.90;96.70;;;;;;4981101;28;20070;-82
2022/03/14 02:34:42;;;;;;;7.53;6.32;;;10.90;96.70;;;;;;4973855;28;20058;-82
2022/03/14 02:37:11;;;;;;;8.30;6.43;;;10.90;96.70;;;;;;4987394;28;20050;-82
2022/03/14 02:39:39;;;;;;;7.95;6.43;;;11.00;96.70;;;;;;4996151;28;20046;-82
2022/03/14 02:42:08;;;;;;;8.48;6.40;;;11.00;96.70;;;;;;4988039;28;20042;-83
2022/03/14 02:44:41;;;;;;;9.27;7.00;;;11.00;96.70;;;;;;4993752;28;20054;-82
2022/03/14 02:47:10;;;;;;;8.63;6.35;;;11.00;96.70;;;;;;4988946;28;20042;-82
2022/03/14 02:49:38;;;;;;;9.05;5.85;;;11.00;96.70;;;;;;4989334;28;20423;-82
2022/03/14 02:52:06;;;;;;;8.75;6.63;;;11.00;96.70;;;;;;5008472;28;20120;-82
2022/03/14 02:54:36;;;;;;;10.98;6.35;;;11.00;96.70;;;;;;5006696;28;20057;-83
2022/03/14 02:57:05;;;;;;;8.38;6.22;;;11.00;96.70;;;;;;4993050;28;20046;-82
2022/03/14 02:59:34;;;;;;;8.80;6.22;;;11.00;96.70;;;;;;4989032;28;20042;-82
2022/03/14 03:02:02;;;;;;;8.23;5.32;;;11.00;96.70;;;;;;4978324;28;20504;-82
2022/03/14 03:04:30;;;;;;;6.72;5.68;;;11.10;96.70;;;;;;4998169;28;20517;-82
2022/03/14 03:06:58;;;;;;;7.95;6.22;;;11.10;96.70;;;;;;4971563;28;20501;-83
2022/03/14 03:09:26;;;;;;;7.22;5.45;;;11.10;96.70;;;;;;4973797;28;20393;-82
2022/03/14 03:11:56;;;;;;;7.28;5.97;;;11.00;96.70;;;;;;4988487;28;20121;-82
2022/03/14 03:14:25;;;;;;;9.95;6.45;;;11.00;96.70;;;;;;5025272;28;20046;-81
2022/03/14 03:16:53;;;;;;;8.98;6.07;;;10.90;96.70;;;;;;4969112;28;20042;-76
2022/03/14 03:19:24;;;;;;;9.57;6.30;;;10.90;96.70;;;;;;4987376;28;20049;-77
2022/03/14 03:21:51;;;;;;;8.27;6.05;;;10.90;96.70;;;;;;4965526;28;20451;-77
2022/03/14 03:24:19;;;;;;;8.00;5.20;;;10.90;96.70;;;;;;5008355;28;20042;-77
2022/03/14 03:26:47;;;;;;;8.82;5.40;;;10.90;96.70;;;;;;5001605;28;20088;-77
2022/03/14 03:29:23;;;;;;;8.60;5.57;;;10.90;96.70;;;;;;5001192;28;20491;-77
2022/03/14 03:31:51;;;;;;;10.00;5.88;;;11.00;96.70;;;;;;4984878;28;20048;-77
2022/03/14 03:34:20;;;;;;;6.55;5.28;;;11.00;96.70;;;;;;4986425;28;20050;-82
2022/03/14 03:36:48;;;;;;;8.55;5.32;;;11.10;96.70;;;;;;4992443;28;20054;-81
2022/03/14 03:39:16;;;;;;;6.50;5.22;;;11.10;96.70;;;;;;4984023;28;20046;-83
2022/03/14 03:41:44;;;;;;;7.40;5.32;;;11.10;96.70;;;;;;5005211;28;20041;-82
2022/03/14 03:44:12;;;;;;;6.78;4.93;;;11.10;96.70;;;;;;4982021;28;20505;-83
2022/03/14 03:46:41;;;;;;;8.27;5.93;;;11.10;96.70;;;;;;4993123;28;20038;-82
2022/03/14 03:49:09;;;;;;;7.25;5.25;;;11.10;96.70;;;;;;4991815;28;20845;-82
2022/03/14 03:51:37;;;;;;;6.95;5.53;;;11.10;96.70;;;;;;4993198;28;20047;-82
2022/03/14 03:54:05;;;;;;;6.07;5.00;;;11.10;96.70;;;;;;4995149;28;20038;-81
2022/03/14 03:56:34;;;;;;;7.40;5.65;;;11.10;96.70;;;;;;4995047;28;20045;-82
2022/03/14 03:59:02;;;;;;;7.70;4.93;;;11.10;96.70;;;;;;5006401;28;20073;-83
2022/03/14 04:01:31;;;;;;;7.32;5.22;;;11.00;96.70;;;;;;4995325;28;20508;-82
2022/03/14 04:04:01;;;;;;;8.75;5.75;;;11.10;96.70;;;;;;5005777;28;20420;-83
2022/03/14 04:06:30;;;;;;;8.63;5.35;;;11.10;96.70;;;;;;4991280;28;20050;-82
2022/03/14 04:09:00;;;;;;;7.82;5.32;;;11.10;96.70;;;;;;4974121;28;20072;-82
2022/03/14 04:11:29;;;;;;;6.47;4.80;;;11.10;96.70;;;;;;4990945;28;20057;-82
2022/03/14 04:13:58;;;;;;;6.45;5.38;;;11.10;96.70;;;;;;5008023;28;20157;-83
2022/03/14 04:16:27;;;;;;;7.88;5.40;;;11.10;96.70;;;;;;5008935;28;20151;-81
2022/03/14 04:18:58;;;;;;;6.70;5.10;;;11.10;96.70;;;;;;4977485;28;20551;-82
2022/03/14 04:21:27;;;;;;;7.68;5.57;;;11.10;96.70;;;;;;4993554;28;20097;-82
2022/03/14 04:23:57;;;;;;;6.63;4.90;;;11.10;96.70;;;;;;4982744;28;20069;-82
2022/03/14 04:26:25;;;;;;;7.10;5.43;;;11.10;96.70;;;;;;4973543;28;20120;-82
2022/03/14 04:28:54;;;;;;;8.52;5.07;;;11.10;96.70;;;;;;4975795;28;20054;-81
2022/03/14 04:31:22;;;;;;;8.25;5.47;;;11.10;96.70;;;;;;5007586;28;20050;-82
2022/03/14 04:33:52;;;;;;;6.93;5.10;;;11.10;96.70;;;;;;4985987;28;20038;-81
2022/03/14 04:36:20;;;;;;;6.85;5.40;;;11.00;96.70;;;;;;5007168;28;20058;-82
2022/03/14 04:38:50;;;;;;;5.75;4.65;;;11.10;96.70;;;;;;4989859;28;20065;-81
2022/03/14 04:41:18;;;;;;;6.20;5.28;;;11.00;96.70;;;;;;5015947;28;20054;-82
2022/03/14 04:43:46;;;;;;;7.82;4.68;;;11.00;96.70;;;;;;4975488;28;20524;-81
2022/03/14 04:46:14;;;;;;;7.72;5.40;;;11.00;96.70;;;;;;4990563;28;20125;-82
2022/03/14 04:48:42;;;;;;;6.32;4.78;;;11.00;96.70;;;;;;4975713;28;20066;-82
2022/03/14 04:51:10;;;;;;;8.00;5.18;;;10.90;96.70;;;;;;4996651;28;20141;-82
2022/03/14 04:53:38;;;;;;;7.05;4.72;;;11.00;96.70;;;;;;4985739;28;20057;-77
2022/03/14 04:56:08;;;;;;;8.77;4.82;;;11.00;96.70;;;;;;4969157;28;20054;-77
2022/03/14 04:58:37;;;;;;;7.03;5.00;;;11.00;96.70;;;;;;4968446;28;20050;-77
2022/03/14 05:01:05;;;;;;;7.70;5.07;;;11.10;96.70;;;;;;5001541;28;20100;-80
2022/03/14 05:03:35;;;;;;;8.52;5.22;;;11.00;96.70;;;;;;5004104;28;20039;-82
2022/03/14 05:06:05;;;;;;;7.40;4.88;;;11.00;96.70;;;;;;4990940;28;20089;-83
2022/03/14 05:08:33;;;;;;;6.28;4.65;;;11.10;96.70;;;;;;5005572;28;20049;-82
2022/03/14 05:11:01;;;;;;;6.35;4.72;;;11.10;96.70;;;;;;4976112;28;20350;-83
2022/03/14 05:13:31;;;;;;;6.35;4.90;;;11.00;96.70;;;;;;4991493;28;20038;-82
2022/03/14 05:15:59;;;;;;;5.38;4.25;;;11.00;96.70;;;;;;4996697;28;20057;-77
2022/03/14 05:18:28;;;;;;;5.93;4.90;;;10.90;96.70;;;;;;5004724;28;20161;-77
2022/03/14 05:20:56;;;;;;;5.80;4.75;;;11.00;96.70;;;;;;5002963;28;20184;-78
2022/03/14 05:23:24;;;;;;;8.98;4.57;;;11.00;96.70;;;;;;4992199;28;20046;-77
2022/03/14 05:25:53;;;;;;;7.43;4.50;;;11.00;96.70;;;;;;4970125;28;20053;-77
2022/03/14 05:28:21;;;;;;;6.45;4.75;;;11.00;96.70;;;;;;4986835;28;20044;-77
2022/03/14 05:30:51;;;;;;;7.25;4.70;;;11.00;96.70;;;;;;4984481;28;20054;-78
2022/03/14 05:33:19;;;;;;;6.95;4.68;;;11.00;96.70;;;;;;5000909;28;20518;-77
2022/03/14 05:35:47;;;;;;;9.13;4.65;;;11.00;96.70;;;;;;4982993;28;20539;-77
2022/03/14 05:38:16;;;;;;;7.32;4.75;;;11.10;96.70;;;;;;4969370;28;20042;-78
2022/03/14 05:40:44;;;;;;;6.03;4.10;;;11.10;96.70;;;;;;4965217;28;20195;-76
2022/03/14 05:43:12;;;;;;;9.10;4.63;;;11.10;96.70;;;;;;4981409;28;20464;-78
2022/03/14 05:45:40;;;;;;;6.05;4.60;;;11.20;96.70;;;;;;4979825;28;20050;-76
2022/03/14 05:48:10;;;;;;;7.20;4.70;;;11.10;96.70;;;;;;4970919;28;20049;-80
2022/03/14 05:50:38;;;;;;;6.50;4.05;;;11.10;96.70;;;;;;4997115;28;20070;-78
2022/03/14 05:53:06;;;;;;;8.73;3.60;;;11.10;96.70;;;;;;5016377;28;20035;-78
2022/03/14 05:55:34;;;;;;;7.50;4.55;;;11.10;96.70;;;;;;4995605;28;20567;-77
2022/03/14 05:58:03;;;;;;;6.93;4.38;;;11.00;96.70;;;;;;4974970;28;20065;-76
2022/03/14 06:00:31;;;;;;;5.75;4.10;;;11.10;96.70;;;;;;4979310;28;20137;-77
2022/03/14 06:02:59;;;;;;;6.35;4.22;;;11.00;96.70;;;;;;4997244;28;20057;-77
2022/03/14 06:05:29;;;;;;;6.43;4.53;;;11.10;96.70;;;;;;4963257;28;21778;-77
2022/03/14 06:07:57;;;;;;;8.40;4.70;;;11.10;96.70;;;;;;4999214;28;20046;-77
2022/03/14 06:10:25;;;;;;;7.50;4.57;;;11.00;96.70;;;;;;4959055;28;20125;-76
2022/03/14 06:12:53;;;;;;;6.88;4.50;;;11.10;96.70;;;;;;4994549;28;20579;-77
2022/03/14 06:15:21;;;;;;;5.72;4.20;;;11.10;96.70;;;;;;4996328;28;20050;-78
2022/03/14 06:17:49;;;;;;;8.15;5.35;;;11.20;96.70;;;;;;4977273;28;20540;-76
2022/03/14 06:20:17;;;;;;;7.95;4.50;;;11.20;96.70;;;;;;4979347;28;20480;-76
2022/03/14 06:22:47;;;;;;;5.93;4.43;;;11.30;96.70;;;;;;4995189;28;20051;-77
2022/03/14 06:25:17;;;;;;;8.65;4.57;;;11.30;96.70;;;;;;4961250;28;20102;-77
2022/03/14 06:27:46;;;;;;;8.43;4.68;;;11.30;96.70;;;;;;4965971;28;20097;-77
2022/03/14 06:30:15;;;;;;;5.93;4.45;;;11.20;96.70;;;;;;4998351;28;20054;-76
2022/03/14 06:32:46;;;;;;;6.57;4.20;;;11.20;96.70;;;;;;4986780;28;20053;-77
2022/03/14 06:35:16;;;;;;;6.05;4.43;;;11.20;96.70;;;;;;4998117;28;20058;-75
2022/03/14 06:37:46;;;;;;;6.10;4.50;;;11.30;96.70;;;;;;4995296;28;20041;-76
2022/03/14 06:40:14;;;;;;;6.50;4.03;;;11.30;96.70;;;;;;4995093;28;20039;-76
2022/03/14 06:42:48;;;;;;;7.55;4.55;;;11.30;96.70;;;;;;4998425;28;20508;-77
2022/03/14 06:45:23;;;;;;;8.07;4.30;;;11.20;96.70;;;;;;4996397;28;20146;-78
2022/03/14 06:47:53;;;;;;;6.95;4.65;;;11.30;96.70;;;;;;4963296;28;20058;-77
2022/03/14 06:50:23;;;;;;;10.57;4.88;;;11.20;96.70;;;;;;4981560;28;20646;-77
2022/03/14 06:52:54;;;;;;;8.80;4.82;;;11.10;96.70;;;;;;4978986;28;20061;-78
2022/03/14 06:55:22;;;;;;;8.52;5.20;;;11.10;96.70;;;;;;4980987;28;20050;-77
2022/03/14 06:57:50;;;;;;;6.88;5.18;;;11.10;96.70;;;;;;4978950;28;20059;-77
2022/03/14 07:00:18;;;;;;;10.75;4.50;;;11.20;96.70;;;;;;5016979;28;20046;-76
2022/03/14 07:02:46;;;;;;;9.05;4.55;;;11.20;96.70;;;;;;4994911;28;20145;-77
2022/03/14 07:05:20;;;;;;;7.00;4.72;;;11.30;96.70;;;;;;4970323;28;20046;-77
2022/03/14 07:07:48;;;;;;;8.25;5.00;;;11.40;96.70;;;;;;4994352;28;20051;-77
2022/03/14 07:10:18;;;;;;;9.07;5.15;;;11.50;96.70;;;;;;4968928;28;20070;-76
2022/03/14 07:12:48;;;;;;;7.63;5.45;;;11.50;96.70;;;;;;4964133;28;20057;-77
2022/03/14 07:15:18;;;;;;;6.93;4.88;;;11.50;96.70;;;;;;4967828;28;20039;-77
2022/03/14 07:17:46;;;;;;;11.43;8.15;;;11.60;96.70;;;;;;4990897;28;20046;-77
2022/03/14 07:20:17;;;;;;;13.13;10.90;;;11.70;96.70;;;;;;4978560;28;20042;-77
2022/03/14 07:22:50;;;;;;;9.82;7.15;;;11.70;96.70;;;;;;4968735;28;20400;-78
2022/03/14 07:25:25;;;;;;;15.70;9.63;;;11.80;96.70;;;;;;4974382;28;20054;-83
2022/03/14 07:27:54;;;;;;;12.98;8.25;;;11.80;96.70;;;;;;5005269;28;20041;-82
2022/03/14 07:30:22;;;;;;;15.88;8.30;;;11.90;96.70;;;;;;5003632;28;20078;-82
2022/03/14 07:32:51;;;;;;;13.52;7.72;;;11.90;96.70;;;;;;4988239;28;20053;-81
2022/03/14 07:35:19;;;;;;;10.43;5.97;;;11.90;96.70;;;;;;4969709;28;20078;-83
2022/03/14 07:37:48;;;;;;;8.80;6.32;;;11.90;96.70;;;;;;4971106;28;20047;-82
2022/03/14 07:40:17;;;;;;;8.18;6.00;;;11.90;96.70;;;;;;4971033;28;20081;-82
2022/03/14 07:42:55;;;;;;;8.38;6.78;;;12.00;96.70;;;;;;4970288;28;20505;-82
2022/03/14 07:45:26;;;;;;;23.63;14.77;;;12.00;96.70;;;;;;4972159;28;20047;-82
2022/03/14 07:47:56;;;;;;;15.57;10.27;;;12.10;96.70;;;;;;5007753;28;20046;-81
2022/03/14 07:50:26;;;;;;;13.00;9.73;;;12.10;96.70;;;;;;4969125;28;20047;-80
2022/03/14 07:52:57;;;;;;;12.65;9.95;;;12.20;96.70;;;;;;4990470;28;20049;-81
2022/03/14 07:55:25;;;;;;;11.80;7.93;;;12.20;96.70;;;;;;4970613;28;20127;-80
2022/03/14 07:57:55;;;;;;;9.18;7.28;;;12.30;96.70;;;;;;5001298;28;20133;-80
2022/03/14 08:00:23;;;;;;;11.98;6.88;;;12.40;96.70;;;;;;5003043;28;20085;-83
2022/03/14 08:02:51;;;;;;;9.05;7.30;;;12.40;96.70;;;;;;5003312;28;20129;-82
2022/03/14 08:05:24;;;;;;;31.23;21.40;;;12.50;96.70;;;;;;4971110;28;20074;-81
2022/03/14 08:07:54;;;;;;;22.67;15.30;;;12.60;96.70;;;;;;4987095;28;20077;-81
2022/03/14 08:10:22;;;;;;;13.07;7.80;;;12.70;96.70;;;;;;4972456;28;20102;-82
2022/03/14 08:12:53;;;;;;;9.27;6.95;;;12.70;96.70;;;;;;5007344;28;20046;-82
2022/03/14 08:15:25;;;;;;;11.45;6.78;;;12.80;96.70;;;;;;4999994;28;20514;-83
2022/03/14 08:17:56;;;;;;;8.30;5.85;;;12.90;96.70;;;;;;4999221;28;20051;-82
2022/03/14 08:20:27;;;;;;;8.45;5.78;;;12.90;96.70;;;;;;4974184;28;20085;-80
2022/03/14 08:22:57;;;;;;;8.38;5.13;;;13.00;96.70;;;;;;4972246;28;20125;-80
2022/03/14 08:25:27;;;;;;;5.65;4.93;;;13.10;96.70;;;;;;5005521;28;20125;-81
2022/03/14 08:27:55;;;;;;;8.15;5.55;;;13.20;96.70;;;;;;4976210;28;20050;-80
2022/03/14 08:30:25;;;;;;;5.72;5.13;;;13.30;96.70;;;;;;5004592;28;20093;-83
2022/03/14 08:32:56;;;;;;;5.60;5.00;;;13.30;96.70;;;;;;4999240;28;20047;-75
2022/03/14 08:35:24;;;;;;;8.35;5.15;;;13.40;96.70;;;;;;4984766;28;20055;-76
2022/03/14 08:37:53;;;;;;;6.75;5.60;;;13.40;96.70;;;;;;4967915;28;20070;-77
2022/03/14 08:40:23;;;;;;;6.47;5.30;;;13.50;96.70;;;;;;5007649;28;20081;-77
2022/03/14 08:42:53;;;;;;;7.80;5.18;;;13.60;96.70;;;;;;4983026;28;20046;-76
2022/03/14 08:45:23;;;;;;;31.77;25.90;;;13.70;96.70;;;;;;4966308;28;20050;-77
2022/03/14 08:47:53;;;;;;;9.75;8.35;;;13.80;96.70;;;;;;4986902;28;20166;-82
2022/03/14 08:50:21;;;;;;;10.50;7.40;;;13.80;96.70;;;;;;4972232;28;20861;-80
2022/03/14 08:52:51;;;;;;;11.60;6.55;;;13.90;96.70;;;;;;4999336;28;20054;-80
2022/03/14 08:55:19;;;;;;;8.18;5.60;;;14.00;96.70;;;;;;4981784;28;20118;-82
2022/03/14 08:57:47;;;;;;;8.43;5.43;;;14.00;96.70;;;;;;4968162;28;20508;-81
2022/03/14 09:00:17;;;;;;;6.60;5.05;;;14.10;96.70;;;;;;4984555;28;20039;-81
2022/03/14 09:02:45;;;;;;;9.23;6.43;;;14.20;96.70;;;;;;4984024;28;20149;-81
2022/03/14 09:05:15;;;;;;;8.32;5.78;;;14.20;96.70;;;;;;4999331;28;20070;-82
2022/03/14 09:07:44;;;;;;;8.40;5.20;;;14.20;96.70;;;;;;4968896;28;20058;-82
2022/03/14 09:10:14;;;;;;;10.07;5.53;;;14.30;96.70;;;;;;4975857;28;20046;-84
2022/03/14 09:12:48;;;;;;;7.28;5.20;;;14.40;96.70;;;;;;4967888;28;20402;-84
2022/03/14 09:15:18;;;;;;;7.90;5.43;;;14.50;96.70;;;;;;4982675;28;20046;-81
2022/03/14 09:17:48;;;;;;;7.57;5.57;;;14.60;96.70;;;;;;4967823;28;20133;-85
2022/03/14 09:20:19;;;;;;;6.03;5.10;;;14.60;96.70;;;;;;4997954;28;20054;-84
2022/03/14 09:22:47;;;;;;;7.70;5.47;;;14.60;96.70;;;;;;4970023;28;20046;-83
2022/03/14 09:25:16;;;;;;;7.78;4.40;;;14.50;96.70;;;;;;4968099;28;20053;-78
2022/03/14 09:27:45;;;;;;;6.85;4.50;;;14.50;96.70;;;;;;4997377;28;20070;-77
2022/03/14 09:30:15;;;;;;;7.47;4.38;;;14.60;96.70;;;;;;4967520;28;20552;-78
2022/03/14 09:32:43;;;;;;;7.43;3.97;;;14.60;96.70;;;;;;4966614;28;20073;-77
2022/03/14 09:35:13;;;;;;;5.18;4.30;;;14.60;96.70;;;;;;4995896;28;21398;-76
2022/03/14 09:37:44;;;;;;;4.90;4.15;;;14.60;96.70;;;;;;4996045;28;20471;-77
2022/03/14 09:40:16;;;;;;;6.15;4.35;;;14.70;96.70;;;;;;4968609;28;20058;-78
2022/03/14 09:42:46;;;;;;;6.35;3.97;;;14.90;96.70;;;;;;4997557;28;20145;-78
2022/03/14 09:45:15;;;;;;;6.07;4.13;;;14.90;96.50;;;;;;4967035;28;20146;-78
2022/03/14 09:47:45;;;;;;;5.47;3.65;;;14.90;96.10;;;;;;4963036;28;20043;-78
2022/03/14 09:50:15;;;;;;;4.15;3.65;;;15.00;96.10;;;;;;4966591;28;20567;-78
2022/03/14 09:52:45;;;;;;;5.22;3.92;;;15.00;95.50;;;;;;4964337;28;20168;-78
2022/03/14 09:55:16;;;;;;;10.80;5.43;;;15.10;95.60;;;;;;4969788;28;20051;-78
2022/03/14 09:57:44;;;;;;;6.43;4.10;;;15.20;95.90;;;;;;4964808;28;20046;-78
2022/03/14 10:00:13;;;;;;;4.88;3.72;;;15.30;95.50;;;;;;4979693;28;20047;-77
2022/03/14 10:02:42;;;;;;;6.18;3.58;;;15.50;95.30;;;;;;4984367;28;20061;-78
2022/03/14 10:05:12;;;;;;;5.45;3.47;;;15.60;94.70;;;;;;4980766;28;20506;-78
2022/03/14 10:07:43;;;;;;;5.85;3.10;;;15.60;94.50;;;;;;5013993;28;20381;-77
2022/03/14 10:10:14;;;;;;;7.93;3.78;;;15.70;94.50;;;;;;4965053;28;20042;-77
2022/03/14 10:12:43;;;;;;;6.18;3.30;;;15.80;94.50;;;;;;4973379;28;20042;-77
2022/03/14 10:15:16;;;;;;;5.95;3.85;;;15.90;94.10;;;;;;4957651;28;20046;-76
2022/03/14 10:17:44;;;;;;;5.65;3.53;;;16.00;93.80;;;;;;5007197;28;20738;-76
2022/03/14 10:20:16;;;;;;;4.80;3.60;;;16.10;94.00;;;;;;4978829;28;20126;-76
2022/03/14 10:22:45;;;;;;;8.48;4.05;;;16.10;93.20;;;;;;5001112;28;20051;-77
2022/03/14 10:25:16;;;;;;;5.22;3.65;;;16.10;93.20;;;;;;4964427;28;20049;-76
2022/03/14 10:27:47;;;;;;;6.80;3.65;;;16.40;93.50;;;;;;4985268;28;20463;-78
2022/03/14 10:30:24;;;;;;;6.07;3.97;;;16.60;92.20;;;;;;4998503;28;20127;-77
2022/03/14 10:33:01;;;;;;;6.70;4.10;;;16.80;91.90;;;;;;4963474;28;20588;-77
2022/03/14 10:35:34;;;;;;;5.80;3.58;;;16.80;91.90;;;;;;4995681;28;20090;-77
2022/03/14 10:38:05;;;;;;;5.82;3.92;;;17.00;91.80;;;;;;4980071;28;20062;-77
2022/03/14 10:40:36;;;;;;;6.47;3.70;;;17.10;92.00;;;;;;4981352;28;20057;-78
2022/03/14 10:43:08;;;;;;;5.90;4.38;;;17.10;91.40;;;;;;5011709;28;20051;-78
2022/03/14 10:45:46;;;;;;;6.45;3.63;;;17.20;91.10;;;;;;4980444;28;20046;-77
2022/03/14 10:48:15;;;;;;;5.22;3.80;;;17.30;90.90;;;;;;4981673;28;20050;-78
2022/03/14 10:50:46;;;;;;;7.35;4.13;;;17.30;90.20;;;;;;4987312;28;20081;-77
2022/03/14 10:53:19;;;;;;;3.83;3.42;;;17.40;90.20;;;;;;4963627;28;20627;-79
2022/03/14 10:55:56;;;;;;;5.40;3.55;;;17.40;89.80;;;;;;5001358;28;20061;-78
2022/03/14 10:58:29;;;;;;;5.68;3.60;;;17.40;90.00;;;;;;4994965;28;20093;-78
2022/03/14 11:00:59;;;;;;;5.35;3.80;;;17.40;89.80;;;;;;4984940;28;20129;-78
2022/03/14 11:03:29;;;;;;;7.13;3.92;;;17.50;89.80;;;;;;4963826;28;20404;-78
2022/03/14 11:06:01;;;;;;;5.85;3.75;;;17.60;89.90;;;;;;4959885;28;20057;-77
2022/03/14 11:08:37;;;;;;;12.63;3.90;;;17.60;89.70;;;;;;4995749;28;20046;-78
2022/03/14 11:11:09;;;;;;;7.20;3.55;;;17.70;89.50;;;;;;4995427;28;20097;-77
2022/03/14 11:13:39;;;;;;;4.32;3.33;;;17.80;89.50;;;;;;4998075;28;20054;-77
2022/03/14 11:16:12;;;;;;;8.32;4.20;;;17.80;89.80;;;;;;4995126;28;20047;-78
2022/03/14 11:18:42;;;;;;;6.18;4.15;;;17.60;89.40;;;;;;4996886;28;20604;-80
2022/03/14 11:21:12;;;;;;;8.70;4.47;;;17.80;90.30;;;;;;4999635;28;20047;-79
2022/03/14 11:23:44;;;;;;;4.63;3.80;;;17.90;89.90;;;;;;4983918;28;20647;-78
2022/03/14 11:26:15;;;;;;;6.18;3.65;;;17.90;90.10;;;;;;4971901;28;20873;-85
2022/03/14 11:28:46;;;;;;;4.50;3.17;;;17.90;89.40;;;;;;5000447;28;20075;-85
2022/03/14 11:31:17;;;;;;;5.82;3.83;;;18.10;89.60;;;;;;5000291;28;20110;-85
2022/03/14 11:33:47;;;;;;;3.80;3.20;;;18.20;88.90;;;;;;4967359;28;20055;-84
2022/03/14 11:36:19;;;;;;;9.27;4.05;;;18.10;88.90;;;;;;4999981;28;20055;-83
2022/03/14 11:38:48;;;;;;;5.70;3.53;;;18.00;89.10;;;;;;4967876;28;20109;-81
2022/03/14 11:41:20;;;;;;;4.75;3.50;;;18.20;89.40;;;;;;4965830;28;20137;-83
2022/03/14 11:43:49;;;;;;;6.50;3.40;;;18.40;88.70;;;;;;5009856;28;20494;-83
2022/03/14 11:46:36;;;;;;;5.65;3.80;;;18.50;89.00;;;;;;4969312;28;20054;-83
2022/03/14 11:49:14;;;;;;;3.55;3.25;;;18.70;88.50;;;;;;4967247;28;20042;-82
2022/03/14 11:51:43;;;;;;;5.45;3.72;;;18.70;88.80;;;;;;4968320;28;20074;-83
2022/03/14 11:54:12;;;;;;;5.00;3.30;;;18.80;88.10;;;;;;5010213;28;20538;-82
2022/03/14 11:56:53;;;;;;;3.50;3.03;;;18.80;87.60;;;;;;4967850;28;20094;-83
2022/03/14 11:59:29;;;;;;;6.35;3.20;;;18.90;88.10;;;;;;4983551;28;20051;-82
2022/03/14 12:02:00;;;;;;;4.13;3.10;;;19.00;87.70;;;;;;4967528;28;20047;-82
2022/03/14 12:04:30;;;;;;;4.90;3.33;;;19.10;88.00;;;;;;4999427;28;20059;-83
2022/03/14 12:07:14;;;;;;;4.95;3.70;;;19.10;87.80;;;;;;4994332;28;20133;-82
2022/03/14 12:09:48;;;;;;;4.82;3.45;;;19.30;87.60;;;;;;4970260;28;20047;-81
2022/03/14 12:12:32;;;;;;;4.07;3.10;;;19.10;87.60;;;;;;4985712;28;20339;-82
2022/03/14 12:15:02;;;;;;;6.05;3.80;;;19.20;87.90;;;;;;4970805;28;20113;-83
2022/03/14 12:17:36;;;;;;;4.95;3.28;;;19.30;87.40;;;;;;4971477;28;20047;-84
2022/03/14 12:20:11;;;;;;;4.40;3.53;;;19.40;87.50;;;;;;5003290;28;20171;-84
2022/03/14 12:22:46;;;;;;;3.85;3.20;;;19.50;87.10;;;;;;4987125;28;20047;-84
2022/03/14 12:25:38;;;;;;;6.28;3.47;;;19.30;87.90;;;;;;4972511;28;20050;-83
2022/03/14 12:28:29;;;;;;;7.43;3.63;;;19.50;87.30;;;;;;4970862;28;20055;-85
2022/03/14 12:31:10;;;;;;;4.68;3.10;;;19.70;86.90;;;;;;4986393;28;20050;-83
2022/03/14 12:33:41;;;;;;;5.72;3.50;;;19.90;86.50;;;;;;4987142;28;20046;-83
2022/03/14 12:36:39;;;;;;;6.25;3.50;;;19.90;86.80;;;;;;4977463;28;20456;-83
2022/03/14 12:39:22;;;;;;;4.00;3.13;;;19.50;86.20;;;;;;4986094;28;20051;-84
2022/03/14 12:41:51;;;;;;;5.47;3.38;;;19.30;87.40;;;;;;4969431;28;20051;-84
2022/03/14 12:44:23;;;;;;;4.57;3.38;;;19.10;88.00;;;;;;4970195;28;20121;-84
2022/03/14 12:46:56;;;;;;;4.75;2.83;;;19.30;88.00;;;;;;4986412;28;20139;-84
2022/03/14 12:49:26;;;;;;;4.90;3.40;;;19.30;87.70;;;;;;5002120;28;20042;-84
2022/03/14 12:52:12;;;;;;;5.18;3.25;;;19.40;87.90;;;;;;4970407;28;20319;-84
2022/03/14 12:54:41;;;;;;;3.88;3.33;;;19.30;87.70;;;;;;5002446;28;20532;-85
2022/03/14 12:57:11;;;;;;;4.07;2.97;;;19.20;87.80;;;;;;4970008;28;20461;-85
2022/03/14 12:59:44;;;;;;;3.42;2.20;;;19.20;88.40;;;;;;4985938;28;20055;-84